sensor_id;sensor_type;location;lat;lon;timestamp;P1;durP1;ratioP1;P2;durP2;ratioP2
14592;SDS011;7383;52.354;9.756;2022-08-19T00:00:48;4.75;;;4.43;;
14592;SDS011;7383;52.354;9.756;2022-08-19T00:03:15;4.80;;;4.40;;
14592;SDS011;7383;52.354;9.756;2022-08-19T00:05:42;4.70;;;4.30;;
14592;SDS011;7383;52.354;9.756;2022-08-19T00:08:08;4.63;;;4.32;;
14592;SDS011;7383;52.354;9.756;2022-08-19T00:10:35;4.32;;;4.03;;
14592;SDS011;7383;52.354;9.756;2022-08-19T00:13:01;4.20;;;3.90;;
14592;SDS011;7383;52.354;9.756;2022-08-19T00:15:29;4.07;;;3.78;;
14592;SDS011;7383;52.354;9.756;2022-08-19T00:17:57;4.90;;;4.32;;
14592;SDS011;7383;52.354;9.756;2022-08-19T00:20:24;4.57;;;4.28;;
14592;SDS011;7383;52.354;9.756;2022-08-19T00:22:50;4.75;;;4.45;;
14592;SDS011;7383;52.354;9.756;2022-08-19T00:25:17;3.97;;;3.78;;
14592;SDS011;7383;52.354;9.756;2022-08-19T00:27:44;4.43;;;4.13;;
14592;SDS011;7383;52.354;9.756;2022-08-19T00:30:11;5.20;;;4.80;;
14592;SDS011;7383;52.354;9.756;2022-08-19T00:32:38;4.90;;;4.60;;
14592;SDS011;7383;52.354;9.756;2022-08-19T00:35:07;4.35;;;4.05;;
14592;SDS011;7383;52.354;9.756;2022-08-19T00:37:35;4.45;;;4.18;;
14592;SDS011;7383;52.354;9.756;2022-08-19T00:40:03;4.95;;;4.60;;
14592;SDS011;7383;52.354;9.756;2022-08-19T00:42:31;4.45;;;4.15;;
14592;SDS011;7383;52.354;9.756;2022-08-19T00:44:58;4.65;;;4.28;;
14592;SDS011;7383;52.354;9.756;2022-08-19T00:47:25;3.83;;;3.63;;
14592;SDS011;7383;52.354;9.756;2022-08-19T00:49:52;4.28;;;3.97;;
14592;SDS011;7383;52.354;9.756;2022-08-19T00:52:25;4.30;;;4.00;;
14592;SDS011;7383;52.354;9.756;2022-08-19T00:54:57;3.92;;;3.72;;
14592;SDS011;7383;52.354;9.756;2022-08-19T00:57:26;4.60;;;4.30;;
14592;SDS011;7383;52.354;9.756;2022-08-19T00:59:56;4.63;;;4.25;;
14592;SDS011;7383;52.354;9.756;2022-08-19T01:02:25;4.80;;;4.40;;
14592;SDS011;7383;52.354;9.756;2022-08-19T01:04:53;4.40;;;4.10;;
14592;SDS011;7383;52.354;9.756;2022-08-19T01:07:21;4.68;;;4.38;;
14592;SDS011;7383;52.354;9.756;2022-08-19T01:09:49;5.05;;;4.65;;
14592;SDS011;7383;52.354;9.756;2022-08-19T01:12:16;4.53;;;4.22;;
14592;SDS011;7383;52.354;9.756;2022-08-19T01:14:43;4.93;;;4.47;;
14592;SDS011;7383;52.354;9.756;2022-08-19T01:17:12;4.50;;;4.20;;
14592;SDS011;7383;52.354;9.756;2022-08-19T01:19:40;4.75;;;4.45;;
14592;SDS011;7383;52.354;9.756;2022-08-19T01:22:10;5.13;;;4.72;;
14592;SDS011;7383;52.354;9.756;2022-08-19T01:24:42;4.30;;;4.00;;
14592;SDS011;7383;52.354;9.756;2022-08-19T01:27:09;4.78;;;4.40;;
14592;SDS011;7383;52.354;9.756;2022-08-19T01:29:38;4.82;;;4.53;;
14592;SDS011;7383;52.354;9.756;2022-08-19T01:32:06;4.55;;;4.25;;
14592;SDS011;7383;52.354;9.756;2022-08-19T01:34:34;4.35;;;4.07;;
14592;SDS011;7383;52.354;9.756;2022-08-19T01:37:17;4.75;;;4.35;;
14592;SDS011;7383;52.354;9.756;2022-08-19T01:39:48;4.25;;;3.95;;
14592;SDS011;7383;52.354;9.756;2022-08-19T01:42:16;4.53;;;4.22;;
14592;SDS011;7383;52.354;9.756;2022-08-19T01:44:43;4.88;;;4.47;;
14592;SDS011;7383;52.354;9.756;2022-08-19T01:47:10;4.80;;;4.50;;
14592;SDS011;7383;52.354;9.756;2022-08-19T01:49:37;4.47;;;4.18;;
14592;SDS011;7383;52.354;9.756;2022-08-19T01:52:04;4.95;;;4.55;;
14592;SDS011;7383;52.354;9.756;2022-08-19T01:54:31;5.50;;;5.10;;
14592;SDS011;7383;52.354;9.756;2022-08-19T01:57:01;5.20;;;4.80;;
14592;SDS011;7383;52.354;9.756;2022-08-19T01:59:30;4.93;;;4.53;;
14592;SDS011;7383;52.354;9.756;2022-08-19T02:02:01;4.90;;;4.60;;
14592;SDS011;7383;52.354;9.756;2022-08-19T02:04:28;5.07;;;4.68;;
14592;SDS011;7383;52.354;9.756;2022-08-19T02:06:54;4.57;;;4.22;;
14592;SDS011;7383;52.354;9.756;2022-08-19T02:09:21;4.57;;;4.28;;
14592;SDS011;7383;52.354;9.756;2022-08-19T02:11:48;4.68;;;4.35;;
14592;SDS011;7383;52.354;9.756;2022-08-19T02:14:16;4.65;;;4.28;;
14592;SDS011;7383;52.354;9.756;2022-08-19T02:16:43;4.90;;;4.57;;
14592;SDS011;7383;52.354;9.756;2022-08-19T02:19:10;4.72;;;4.35;;
14592;SDS011;7383;52.354;9.756;2022-08-19T02:21:39;5.20;;;4.80;;
14592;SDS011;7383;52.354;9.756;2022-08-19T02:24:06;4.88;;;4.57;;
14592;SDS011;7383;52.354;9.756;2022-08-19T02:26:33;4.95;;;4.55;;
14592;SDS011;7383;52.354;9.756;2022-08-19T02:29:00;5.05;;;4.68;;
14592;SDS011;7383;52.354;9.756;2022-08-19T02:31:28;5.22;;;4.82;;
14592;SDS011;7383;52.354;9.756;2022-08-19T02:33:55;5.22;;;4.82;;
14592;SDS011;7383;52.354;9.756;2022-08-19T02:36:22;4.85;;;4.53;;
14592;SDS011;7383;52.354;9.756;2022-08-19T02:38:50;5.25;;;4.82;;
14592;SDS011;7383;52.354;9.756;2022-08-19T02:41:16;4.43;;;4.13;;
14592;SDS011;7383;52.354;9.756;2022-08-19T02:43:45;4.45;;;4.15;;
14592;SDS011;7383;52.354;9.756;2022-08-19T02:46:13;4.85;;;4.45;;
14592;SDS011;7383;52.354;9.756;2022-08-19T02:48:44;5.03;;;4.63;;
14592;SDS011;7383;52.354;9.756;2022-08-19T02:51:17;4.78;;;4.47;;
14592;SDS011;7383;52.354;9.756;2022-08-19T02:53:45;5.05;;;4.65;;
14592;SDS011;7383;52.354;9.756;2022-08-19T02:56:12;4.95;;;4.55;;
14592;SDS011;7383;52.354;9.756;2022-08-19T02:58:39;4.65;;;4.25;;
14592;SDS011;7383;52.354;9.756;2022-08-19T03:01:08;4.97;;;4.68;;
14592;SDS011;7383;52.354;9.756;2022-08-19T03:03:35;4.60;;;4.30;;
14592;SDS011;7383;52.354;9.756;2022-08-19T03:06:05;4.63;;;4.22;;
14592;SDS011;7383;52.354;9.756;2022-08-19T03:08:33;4.13;;;3.83;;
14592;SDS011;7383;52.354;9.756;2022-08-19T03:11:03;4.18;;;3.88;;
14592;SDS011;7383;52.354;9.756;2022-08-19T03:13:31;4.30;;;4.00;;
14592;SDS011;7383;52.354;9.756;2022-08-19T03:15:58;4.60;;;4.30;;
14592;SDS011;7383;52.354;9.756;2022-08-19T03:18:24;4.30;;;3.90;;
14592;SDS011;7383;52.354;9.756;2022-08-19T03:20:52;3.65;;;3.45;;
14592;SDS011;7383;52.354;9.756;2022-08-19T03:23:21;4.18;;;3.88;;
14592;SDS011;7383;52.354;9.756;2022-08-19T03:25:49;4.90;;;4.45;;
14592;SDS011;7383;52.354;9.756;2022-08-19T03:28:17;4.28;;;3.97;;
14592;SDS011;7383;52.354;9.756;2022-08-19T03:30:54;4.43;;;4.03;;
14592;SDS011;7383;52.354;9.756;2022-08-19T03:33:22;4.18;;;3.88;;
14592;SDS011;7383;52.354;9.756;2022-08-19T03:35:58;3.85;;;3.55;;
14592;SDS011;7383;52.354;9.756;2022-08-19T03:38:27;3.90;;;3.60;;
14592;SDS011;7383;52.354;9.756;2022-08-19T03:40:54;4.00;;;3.75;;
14592;SDS011;7383;52.354;9.756;2022-08-19T03:43:20;3.85;;;3.65;;
14592;SDS011;7383;52.354;9.756;2022-08-19T03:45:47;3.83;;;3.63;;
14592;SDS011;7383;52.354;9.756;2022-08-19T03:48:14;4.45;;;4.05;;
14592;SDS011;7383;52.354;9.756;2022-08-19T03:50:41;4.35;;;4.05;;
14592;SDS011;7383;52.354;9.756;2022-08-19T03:53:08;4.03;;;3.75;;
14592;SDS011;7383;52.354;9.756;2022-08-19T03:55:39;4.10;;;3.80;;
14592;SDS011;7383;52.354;9.756;2022-08-19T03:58:06;3.85;;;3.55;;
14592;SDS011;7383;52.354;9.756;2022-08-19T04:00:33;4.28;;;3.88;;
14592;SDS011;7383;52.354;9.756;2022-08-19T04:02:59;4.05;;;3.75;;
14592;SDS011;7383;52.354;9.756;2022-08-19T04:05:26;4.97;;;3.97;;
14592;SDS011;7383;52.354;9.756;2022-08-19T04:07:53;4.22;;;3.92;;
14592;SDS011;7383;52.354;9.756;2022-08-19T04:10:23;4.07;;;3.78;;
14592;SDS011;7383;52.354;9.756;2022-08-19T04:12:51;4.45;;;4.15;;
14592;SDS011;7383;52.354;9.756;2022-08-19T04:15:17;4.35;;;4.05;;
14592;SDS011;7383;52.354;9.756;2022-08-19T04:17:44;3.80;;;3.60;;
14592;SDS011;7383;52.354;9.756;2022-08-19T04:20:11;4.30;;;4.00;;
14592;SDS011;7383;52.354;9.756;2022-08-19T04:22:37;5.22;;;4.82;;
14592;SDS011;7383;52.354;9.756;2022-08-19T04:25:04;5.57;;;5.15;;
14592;SDS011;7383;52.354;9.756;2022-08-19T04:27:31;5.20;;;4.80;;
14592;SDS011;7383;52.354;9.756;2022-08-19T04:29:59;5.10;;;4.70;;
14592;SDS011;7383;52.354;9.756;2022-08-19T04:32:26;4.70;;;4.30;;
14592;SDS011;7383;52.354;9.756;2022-08-19T04:34:52;4.55;;;4.25;;
14592;SDS011;7383;52.354;9.756;2022-08-19T04:37:23;4.90;;;4.50;;
14592;SDS011;7383;52.354;9.756;2022-08-19T04:39:51;4.57;;;4.18;;
14592;SDS011;7383;52.354;9.756;2022-08-19T04:42:35;4.13;;;3.83;;
14592;SDS011;7383;52.354;9.756;2022-08-19T04:45:07;4.20;;;3.88;;
14592;SDS011;7383;52.354;9.756;2022-08-19T04:47:35;4.75;;;4.35;;
14592;SDS011;7383;52.354;9.756;2022-08-19T04:50:03;4.47;;;4.18;;
14592;SDS011;7383;52.354;9.756;2022-08-19T04:52:30;4.50;;;4.20;;
14592;SDS011;7383;52.354;9.756;2022-08-19T04:54:57;4.40;;;4.00;;
14592;SDS011;7383;52.354;9.756;2022-08-19T04:57:23;4.35;;;4.05;;
14592;SDS011;7383;52.354;9.756;2022-08-19T04:59:53;3.92;;;3.63;;
14592;SDS011;7383;52.354;9.756;2022-08-19T05:02:21;3.90;;;3.63;;
14592;SDS011;7383;52.354;9.756;2022-08-19T05:04:50;4.13;;;3.83;;
14592;SDS011;7383;52.354;9.756;2022-08-19T05:07:17;3.80;;;3.50;;
14592;SDS011;7383;52.354;9.756;2022-08-19T05:09:43;3.92;;;3.72;;
14592;SDS011;7383;52.354;9.756;2022-08-19T05:12:10;4.13;;;3.85;;
14592;SDS011;7383;52.354;9.756;2022-08-19T05:14:36;4.40;;;4.10;;
14592;SDS011;7383;52.354;9.756;2022-08-19T05:17:03;4.38;;;4.07;;
14592;SDS011;7383;52.354;9.756;2022-08-19T05:19:31;4.10;;;3.90;;
14592;SDS011;7383;52.354;9.756;2022-08-19T05:22:15;4.65;;;4.35;;
14592;SDS011;7383;52.354;9.756;2022-08-19T05:25:04;4.15;;;3.85;;
14592;SDS011;7383;52.354;9.756;2022-08-19T05:27:38;4.85;;;4.55;;
14592;SDS011;7383;52.354;9.756;2022-08-19T05:30:05;4.63;;;4.32;;
14592;SDS011;7383;52.354;9.756;2022-08-19T05:32:32;4.57;;;4.28;;
14592;SDS011;7383;52.354;9.756;2022-08-19T05:35:00;5.20;;;4.80;;
14592;SDS011;7383;52.354;9.756;2022-08-19T05:37:26;4.75;;;4.43;;
14592;SDS011;7383;52.354;9.756;2022-08-19T05:39:53;5.25;;;4.85;;
14592;SDS011;7383;52.354;9.756;2022-08-19T05:42:20;5.30;;;4.88;;
14592;SDS011;7383;52.354;9.756;2022-08-19T05:44:47;5.25;;;4.85;;
14592;SDS011;7383;52.354;9.756;2022-08-19T05:47:14;4.80;;;4.50;;
14592;SDS011;7383;52.354;9.756;2022-08-19T05:49:43;5.78;;;5.28;;
14592;SDS011;7383;52.354;9.756;2022-08-19T05:52:12;8.55;;;7.95;;
14592;SDS011;7383;52.354;9.756;2022-08-19T05:54:40;5.68;;;5.28;;
14592;SDS011;7383;52.354;9.756;2022-08-19T05:57:08;7.88;;;7.18;;
14592;SDS011;7383;52.354;9.756;2022-08-19T05:59:36;7.03;;;6.43;;
14592;SDS011;7383;52.354;9.756;2022-08-19T06:02:03;7.45;;;6.85;;
14592;SDS011;7383;52.354;9.756;2022-08-19T06:04:31;7.90;;;7.20;;
14592;SDS011;7383;52.354;9.756;2022-08-19T06:06:58;8.60;;;7.90;;
14592;SDS011;7383;52.354;9.756;2022-08-19T06:09:27;8.65;;;7.85;;
14592;SDS011;7383;52.354;9.756;2022-08-19T06:11:55;8.05;;;7.35;;
14592;SDS011;7383;52.354;9.756;2022-08-19T06:14:24;8.18;;;7.38;;
14592;SDS011;7383;52.354;9.756;2022-08-19T06:16:53;8.75;;;8.05;;
14592;SDS011;7383;52.354;9.756;2022-08-19T06:19:21;8.15;;;7.53;;
14592;SDS011;7383;52.354;9.756;2022-08-19T06:21:49;8.93;;;8.13;;
14592;SDS011;7383;52.354;9.756;2022-08-19T06:24:18;8.57;;;7.82;;
14592;SDS011;7383;52.354;9.756;2022-08-19T06:26:49;8.38;;;7.68;;
14592;SDS011;7383;52.354;9.756;2022-08-19T06:29:17;8.20;;;7.50;;
14592;SDS011;7383;52.354;9.756;2022-08-19T06:31:47;7.90;;;7.20;;
14592;SDS011;7383;52.354;9.756;2022-08-19T06:34:16;7.57;;;6.97;;
14592;SDS011;7383;52.354;9.756;2022-08-19T06:36:43;8.82;;;7.93;;
14592;SDS011;7383;52.354;9.756;2022-08-19T06:39:12;8.85;;;8.05;;
14592;SDS011;7383;52.354;9.756;2022-08-19T06:41:40;9.02;;;8.27;;
14592;SDS011;7383;52.354;9.756;2022-08-19T06:44:10;9.25;;;8.45;;
14592;SDS011;7383;52.354;9.756;2022-08-19T06:46:38;9.43;;;8.60;;
14592;SDS011;7383;52.354;9.756;2022-08-19T06:49:05;9.00;;;8.27;;
14592;SDS011;7383;52.354;9.756;2022-08-19T06:51:36;9.27;;;8.48;;
14592;SDS011;7383;52.354;9.756;2022-08-19T06:54:03;9.88;;;8.93;;
14592;SDS011;7383;52.354;9.756;2022-08-19T06:56:30;10.13;;;9.25;;
14592;SDS011;7383;52.354;9.756;2022-08-19T06:58:58;10.27;;;9.38;;
14592;SDS011;7383;52.354;9.756;2022-08-19T07:01:26;10.88;;;9.88;;
14592;SDS011;7383;52.354;9.756;2022-08-19T07:03:53;10.00;;;9.10;;
14592;SDS011;7383;52.354;9.756;2022-08-19T07:06:19;9.23;;;8.52;;
14592;SDS011;7383;52.354;9.756;2022-08-19T07:08:46;8.52;;;7.90;;
14592;SDS011;7383;52.354;9.756;2022-08-19T07:11:14;9.00;;;8.30;;
14592;SDS011;7383;52.354;9.756;2022-08-19T07:13:42;8.40;;;7.70;;
14592;SDS011;7383;52.354;9.756;2022-08-19T07:16:11;8.82;;;8.23;;
14592;SDS011;7383;52.354;9.756;2022-08-19T07:18:40;9.48;;;8.77;;
14592;SDS011;7383;52.354;9.756;2022-08-19T07:21:08;9.48;;;8.68;;
14592;SDS011;7383;52.354;9.756;2022-08-19T07:23:36;9.52;;;8.70;;
14592;SDS011;7383;52.354;9.756;2022-08-19T07:26:04;9.45;;;8.73;;
14592;SDS011;7383;52.354;9.756;2022-08-19T07:28:32;9.52;;;8.82;;
14592;SDS011;7383;52.354;9.756;2022-08-19T07:30:58;10.57;;;9.68;;
14592;SDS011;7383;52.354;9.756;2022-08-19T07:33:26;11.63;;;10.60;;
14592;SDS011;7383;52.354;9.756;2022-08-19T07:35:56;11.25;;;10.30;;
14592;SDS011;7383;52.354;9.756;2022-08-19T07:38:22;10.25;;;9.45;;
14592;SDS011;7383;52.354;9.756;2022-08-19T07:43:49;11.35;;;10.48;;
14592;SDS011;7383;52.354;9.756;2022-08-19T07:46:17;11.23;;;10.32;;
14592;SDS011;7383;52.354;9.756;2022-08-19T07:48:45;10.48;;;9.63;;
14592;SDS011;7383;52.354;9.756;2022-08-19T07:51:14;13.15;;;12.05;;
14592;SDS011;7383;52.354;9.756;2022-08-19T07:53:43;11.60;;;10.60;;
14592;SDS011;7383;52.354;9.756;2022-08-19T07:56:10;11.95;;;10.85;;
14592;SDS011;7383;52.354;9.756;2022-08-19T07:58:38;11.57;;;10.57;;
14592;SDS011;7383;52.354;9.756;2022-08-19T08:01:08;12.38;;;11.38;;
14592;SDS011;7383;52.354;9.756;2022-08-19T08:03:37;11.73;;;10.80;;
14592;SDS011;7383;52.354;9.756;2022-08-19T08:06:23;11.40;;;10.40;;
14592;SDS011;7383;52.354;9.756;2022-08-19T08:09:07;10.57;;;9.70;;
14592;SDS011;7383;52.354;9.756;2022-08-19T08:11:41;9.70;;;8.90;;
14592;SDS011;7383;52.354;9.756;2022-08-19T08:14:14;9.05;;;8.45;;
14592;SDS011;7383;52.354;9.756;2022-08-19T08:16:42;9.02;;;8.23;;
14592;SDS011;7383;52.354;9.756;2022-08-19T08:19:10;8.27;;;7.68;;
14592;SDS011;7383;52.354;9.756;2022-08-19T08:21:41;8.05;;;7.45;;
14592;SDS011;7383;52.354;9.756;2022-08-19T08:24:08;7.22;;;6.72;;
14592;SDS011;7383;52.354;9.756;2022-08-19T08:26:35;7.95;;;7.35;;
14592;SDS011;7383;52.354;9.756;2022-08-19T08:29:04;7.88;;;7.28;;
14592;SDS011;7383;52.354;9.756;2022-08-19T08:31:36;7.60;;;7.00;;
14592;SDS011;7383;52.354;9.756;2022-08-19T08:34:03;7.43;;;6.82;;
14592;SDS011;7383;52.354;9.756;2022-08-19T08:36:29;6.43;;;5.95;;
14592;SDS011;7383;52.354;9.756;2022-08-19T08:38:59;6.70;;;6.10;;
14592;SDS011;7383;52.354;9.756;2022-08-19T08:41:28;6.32;;;5.72;;
14592;SDS011;7383;52.354;9.756;2022-08-19T08:44:00;6.30;;;5.88;;
14592;SDS011;7383;52.354;9.756;2022-08-19T08:46:30;6.05;;;5.65;;
14592;SDS011;7383;52.354;9.756;2022-08-19T08:49:04;6.38;;;5.90;;
14592;SDS011;7383;52.354;9.756;2022-08-19T08:51:37;6.20;;;5.70;;
14592;SDS011;7383;52.354;9.756;2022-08-19T08:54:10;7.25;;;6.75;;
14592;SDS011;7383;52.354;9.756;2022-08-19T08:56:39;6.90;;;6.40;;
14592;SDS011;7383;52.354;9.756;2022-08-19T08:59:07;5.55;;;5.22;;
14592;SDS011;7383;52.354;9.756;2022-08-19T09:01:38;6.38;;;5.90;;
14592;SDS011;7383;52.354;9.756;2022-08-19T09:04:05;5.78;;;5.38;;
14592;SDS011;7383;52.354;9.756;2022-08-19T09:06:40;5.07;;;4.78;;
14592;SDS011;7383;52.354;9.756;2022-08-19T09:09:18;6.05;;;5.55;;
14592;SDS011;7383;52.354;9.756;2022-08-19T09:11:55;6.10;;;5.60;;
14592;SDS011;7383;52.354;9.756;2022-08-19T09:14:32;5.35;;;5.05;;
14592;SDS011;7383;52.354;9.756;2022-08-19T09:17:03;6.07;;;5.68;;
14592;SDS011;7383;52.354;9.756;2022-08-19T09:19:32;7.03;;;6.53;;
14592;SDS011;7383;52.354;9.756;2022-08-19T09:22:00;6.00;;;5.60;;
14592;SDS011;7383;52.354;9.756;2022-08-19T09:24:27;5.78;;;5.28;;
14592;SDS011;7383;52.354;9.756;2022-08-19T09:26:54;5.70;;;5.32;;
14592;SDS011;7383;52.354;9.756;2022-08-19T09:29:20;5.38;;;5.07;;
14592;SDS011;7383;52.354;9.756;2022-08-19T09:31:47;4.85;;;4.55;;
14592;SDS011;7383;52.354;9.756;2022-08-19T09:34:14;4.90;;;4.60;;
14592;SDS011;7383;52.354;9.756;2022-08-19T09:36:41;4.25;;;4.03;;
14592;SDS011;7383;52.354;9.756;2022-08-19T09:39:07;4.47;;;4.18;;
14592;SDS011;7383;52.354;9.756;2022-08-19T09:41:35;4.90;;;4.60;;
14592;SDS011;7383;52.354;9.756;2022-08-19T09:44:01;4.53;;;4.15;;
14592;SDS011;7383;52.354;9.756;2022-08-19T09:46:29;3.95;;;3.75;;
14592;SDS011;7383;52.354;9.756;2022-08-19T09:48:57;4.00;;;3.78;;
14592;SDS011;7383;52.354;9.756;2022-08-19T09:51:25;3.70;;;3.50;;
14592;SDS011;7383;52.354;9.756;2022-08-19T09:53:53;3.97;;;3.72;;
14592;SDS011;7383;52.354;9.756;2022-08-19T09:56:21;3.92;;;3.72;;
14592;SDS011;7383;52.354;9.756;2022-08-19T09:58:49;3.28;;;3.08;;
14592;SDS011;7383;52.354;9.756;2022-08-19T10:01:17;3.70;;;3.50;;
14592;SDS011;7383;52.354;9.756;2022-08-19T10:03:46;3.78;;;3.47;;
14592;SDS011;7383;52.354;9.756;2022-08-19T10:06:14;3.17;;;2.97;;
14592;SDS011;7383;52.354;9.756;2022-08-19T10:08:40;3.92;;;3.63;;
14592;SDS011;7383;52.354;9.756;2022-08-19T10:11:07;3.67;;;3.47;;
14592;SDS011;7383;52.354;9.756;2022-08-19T10:13:35;3.08;;;2.88;;
14592;SDS011;7383;52.354;9.756;2022-08-19T10:16:04;3.83;;;3.55;;
14592;SDS011;7383;52.354;9.756;2022-08-19T10:18:33;3.17;;;2.97;;
14592;SDS011;7383;52.354;9.756;2022-08-19T10:21:04;3.65;;;3.35;;
14592;SDS011;7383;52.354;9.756;2022-08-19T10:23:35;3.40;;;3.10;;
14592;SDS011;7383;52.354;9.756;2022-08-19T10:26:03;2.95;;;2.75;;
14592;SDS011;7383;52.354;9.756;2022-08-19T10:28:31;3.60;;;3.40;;
14592;SDS011;7383;52.354;9.756;2022-08-19T10:31:03;2.67;;;2.53;;
14592;SDS011;7383;52.354;9.756;2022-08-19T10:33:31;3.50;;;3.30;;
14592;SDS011;7383;52.354;9.756;2022-08-19T10:35:59;2.92;;;2.72;;
14592;SDS011;7383;52.354;9.756;2022-08-19T10:38:26;3.70;;;3.40;;
14592;SDS011;7383;52.354;9.756;2022-08-19T10:40:53;2.60;;;2.50;;
14592;SDS011;7383;52.354;9.756;2022-08-19T10:43:20;2.45;;;2.30;;
14592;SDS011;7383;52.354;9.756;2022-08-19T10:45:48;2.72;;;2.55;;
14592;SDS011;7383;52.354;9.756;2022-08-19T10:48:19;2.28;;;2.17;;
14592;SDS011;7383;52.354;9.756;2022-08-19T10:50:45;2.60;;;2.40;;
14592;SDS011;7383;52.354;9.756;2022-08-19T10:53:29;2.70;;;2.50;;
14592;SDS011;7383;52.354;9.756;2022-08-19T10:55:55;2.40;;;2.30;;
14592;SDS011;7383;52.354;9.756;2022-08-19T10:58:36;2.70;;;2.35;;
14592;SDS011;7383;52.354;9.756;2022-08-19T11:01:02;1.95;;;1.85;;
14592;SDS011;7383;52.354;9.756;2022-08-19T11:03:30;2.25;;;2.03;;
14592;SDS011;7383;52.354;9.756;2022-08-19T11:05:57;2.30;;;2.20;;
14592;SDS011;7383;52.354;9.756;2022-08-19T11:08:24;2.20;;;2.10;;
14592;SDS011;7383;52.354;9.756;2022-08-19T11:10:52;2.17;;;2.08;;
14592;SDS011;7383;52.354;9.756;2022-08-19T11:13:25;1.90;;;1.80;;
14592;SDS011;7383;52.354;9.756;2022-08-19T11:15:59;2.05;;;1.95;;
14592;SDS011;7383;52.354;9.756;2022-08-19T11:18:26;2.20;;;2.10;;
14592;SDS011;7383;52.354;9.756;2022-08-19T11:20:54;2.40;;;2.30;;
14592;SDS011;7383;52.354;9.756;2022-08-19T11:23:20;1.85;;;1.75;;
14592;SDS011;7383;52.354;9.756;2022-08-19T11:25:47;2.13;;;2.03;;
14592;SDS011;7383;52.354;9.756;2022-08-19T11:28:15;1.95;;;1.85;;
14592;SDS011;7383;52.354;9.756;2022-08-19T11:30:42;2.15;;;2.05;;
14592;SDS011;7383;52.354;9.756;2022-08-19T11:33:09;2.30;;;2.20;;
14592;SDS011;7383;52.354;9.756;2022-08-19T11:35:38;2.40;;;2.30;;
14592;SDS011;7383;52.354;9.756;2022-08-19T11:38:06;2.00;;;1.90;;
14592;SDS011;7383;52.354;9.756;2022-08-19T11:40:32;2.00;;;1.90;;
14592;SDS011;7383;52.354;9.756;2022-08-19T11:42:59;1.88;;;1.77;;
14592;SDS011;7383;52.354;9.756;2022-08-19T11:45:25;1.63;;;1.63;;
14592;SDS011;7383;52.354;9.756;2022-08-19T11:47:54;1.90;;;1.80;;
14592;SDS011;7383;52.354;9.756;2022-08-19T11:50:21;2.47;;;2.28;;
14592;SDS011;7383;52.354;9.756;2022-08-19T11:52:48;2.13;;;1.95;;
14592;SDS011;7383;52.354;9.756;2022-08-19T11:55:16;2.30;;;2.20;;
14592;SDS011;7383;52.354;9.756;2022-08-19T11:57:42;1.55;;;1.50;;
14592;SDS011;7383;52.354;9.756;2022-08-19T12:00:09;1.80;;;1.70;;
14592;SDS011;7383;52.354;9.756;2022-08-19T12:02:37;1.70;;;1.60;;
14592;SDS011;7383;52.354;9.756;2022-08-19T12:05:11;1.42;;;1.42;;
14592;SDS011;7383;52.354;9.756;2022-08-19T12:07:40;1.60;;;1.60;;
14592;SDS011;7383;52.354;9.756;2022-08-19T12:10:07;2.00;;;1.90;;
14592;SDS011;7383;52.354;9.756;2022-08-19T12:12:36;2.13;;;2.03;;
14592;SDS011;7383;52.354;9.756;2022-08-19T12:15:08;1.77;;;1.70;;
14592;SDS011;7383;52.354;9.756;2022-08-19T12:20:18;2.30;;;2.10;;
14592;SDS011;7383;52.354;9.756;2022-08-19T12:22:48;2.70;;;1.83;;
14592;SDS011;7383;52.354;9.756;2022-08-19T12:25:25;2.30;;;2.10;;
14592;SDS011;7383;52.354;9.756;2022-08-19T12:27:55;2.30;;;2.20;;
14592;SDS011;7383;52.354;9.756;2022-08-19T12:30:23;1.85;;;1.75;;
14592;SDS011;7383;52.354;9.756;2022-08-19T12:32:50;1.85;;;1.75;;
14592;SDS011;7383;52.354;9.756;2022-08-19T12:35:19;1.88;;;1.77;;
14592;SDS011;7383;52.354;9.756;2022-08-19T12:37:46;1.90;;;1.80;;
14592;SDS011;7383;52.354;9.756;2022-08-19T12:40:16;1.80;;;1.70;;
14592;SDS011;7383;52.354;9.756;2022-08-19T12:42:51;1.80;;;1.70;;
14592;SDS011;7383;52.354;9.756;2022-08-19T12:45:20;1.70;;;1.60;;
14592;SDS011;7383;52.354;9.756;2022-08-19T12:47:48;1.60;;;1.52;;
14592;SDS011;7383;52.354;9.756;2022-08-19T12:50:15;1.70;;;1.60;;
14592;SDS011;7383;52.354;9.756;2022-08-19T12:52:44;1.60;;;1.50;;
14592;SDS011;7383;52.354;9.756;2022-08-19T12:55:13;1.38;;;1.38;;
14592;SDS011;7383;52.354;9.756;2022-08-19T12:57:40;1.60;;;1.50;;
14592;SDS011;7383;52.354;9.756;2022-08-19T13:00:10;2.22;;;2.13;;
14592;SDS011;7383;52.354;9.756;2022-08-19T13:02:39;1.90;;;1.80;;
14592;SDS011;7383;52.354;9.756;2022-08-19T13:05:16;2.80;;;2.60;;
14592;SDS011;7383;52.354;9.756;2022-08-19T13:07:46;2.17;;;2.08;;
14592;SDS011;7383;52.354;9.756;2022-08-19T13:10:14;2.20;;;2.10;;
14592;SDS011;7383;52.354;9.756;2022-08-19T13:13:03;1.90;;;1.80;;
14592;SDS011;7383;52.354;9.756;2022-08-19T13:15:40;1.70;;;1.60;;
14592;SDS011;7383;52.354;9.756;2022-08-19T13:18:11;1.70;;;1.60;;
14592;SDS011;7383;52.354;9.756;2022-08-19T13:20:38;1.70;;;1.70;;
14592;SDS011;7383;52.354;9.756;2022-08-19T13:23:07;1.80;;;1.70;;
14592;SDS011;7383;52.354;9.756;2022-08-19T13:25:36;1.58;;;1.48;;
14592;SDS011;7383;52.354;9.756;2022-08-19T13:28:05;2.65;;;1.70;;
14592;SDS011;7383;52.354;9.756;2022-08-19T13:30:34;2.03;;;1.60;;
14592;SDS011;7383;52.354;9.756;2022-08-19T13:33:18;1.90;;;1.80;;
14592;SDS011;7383;52.354;9.756;2022-08-19T13:35:46;1.85;;;1.60;;
14592;SDS011;7383;52.354;9.756;2022-08-19T13:38:17;1.85;;;1.45;;
14592;SDS011;7383;52.354;9.756;2022-08-19T13:40:45;1.75;;;1.40;;
14592;SDS011;7383;52.354;9.756;2022-08-19T13:43:17;1.70;;;1.60;;
14592;SDS011;7383;52.354;9.756;2022-08-19T13:45:44;1.55;;;1.45;;
14592;SDS011;7383;52.354;9.756;2022-08-19T13:48:11;1.40;;;1.30;;
14592;SDS011;7383;52.354;9.756;2022-08-19T13:50:41;1.70;;;1.60;;
14592;SDS011;7383;52.354;9.756;2022-08-19T13:53:10;3.28;;;1.58;;
14592;SDS011;7383;52.354;9.756;2022-08-19T13:55:39;1.50;;;1.40;;
14592;SDS011;7383;52.354;9.756;2022-08-19T13:58:07;1.50;;;1.40;;
14592;SDS011;7383;52.354;9.756;2022-08-19T14:00:35;1.15;;;1.15;;
14592;SDS011;7383;52.354;9.756;2022-08-19T14:03:02;1.27;;;1.23;;
14592;SDS011;7383;52.354;9.756;2022-08-19T14:05:30;1.35;;;1.33;;
14592;SDS011;7383;52.354;9.756;2022-08-19T14:07:58;2.25;;;1.70;;
14592;SDS011;7383;52.354;9.756;2022-08-19T14:10:26;1.55;;;1.45;;
14592;SDS011;7383;52.354;9.756;2022-08-19T14:12:57;1.20;;;1.10;;
14592;SDS011;7383;52.354;9.756;2022-08-19T14:15:26;1.80;;;1.70;;
14592;SDS011;7383;52.354;9.756;2022-08-19T14:17:53;1.83;;;1.70;;
14592;SDS011;7383;52.354;9.756;2022-08-19T14:20:21;1.58;;;1.35;;
14592;SDS011;7383;52.354;9.756;2022-08-19T14:22:48;1.92;;;1.75;;
14592;SDS011;7383;52.354;9.756;2022-08-19T14:27:59;1.92;;;1.58;;
14592;SDS011;7383;52.354;9.756;2022-08-19T14:30:27;1.70;;;1.60;;
14592;SDS011;7383;52.354;9.756;2022-08-19T14:32:56;1.40;;;1.40;;
14592;SDS011;7383;52.354;9.756;2022-08-19T14:35:25;1.60;;;1.50;;
14592;SDS011;7383;52.354;9.756;2022-08-19T14:37:53;1.70;;;1.60;;
14592;SDS011;7383;52.354;9.756;2022-08-19T14:40:21;1.30;;;1.30;;
14592;SDS011;7383;52.354;9.756;2022-08-19T14:42:50;2.17;;;1.80;;
14592;SDS011;7383;52.354;9.756;2022-08-19T14:45:19;1.90;;;1.80;;
14592;SDS011;7383;52.354;9.756;2022-08-19T14:47:45;2.13;;;1.65;;
14592;SDS011;7383;52.354;9.756;2022-08-19T14:50:12;1.90;;;1.73;;
14592;SDS011;7383;52.354;9.756;2022-08-19T14:52:38;2.20;;;2.00;;
14592;SDS011;7383;52.354;9.756;2022-08-19T14:55:05;1.90;;;1.80;;
14592;SDS011;7383;52.354;9.756;2022-08-19T14:57:32;1.52;;;1.42;;
14592;SDS011;7383;52.354;9.756;2022-08-19T14:59:59;1.50;;;1.50;;
14592;SDS011;7383;52.354;9.756;2022-08-19T15:02:26;1.73;;;1.63;;
14592;SDS011;7383;52.354;9.756;2022-08-19T15:04:53;1.50;;;1.50;;
14592;SDS011;7383;52.354;9.756;2022-08-19T15:07:20;2.08;;;1.60;;
14592;SDS011;7383;52.354;9.756;2022-08-19T15:09:48;1.58;;;1.58;;
14592;SDS011;7383;52.354;9.756;2022-08-19T15:12:15;2.00;;;1.75;;
14592;SDS011;7383;52.354;9.756;2022-08-19T15:14:41;2.17;;;2.08;;
14592;SDS011;7383;52.354;9.756;2022-08-19T15:17:09;1.88;;;1.77;;